Paris, Idaho
Current Conditions -  °F | °C
As of 11:51 PM on Tuesday 25 Nov 2014 (Local Time) from KLGU Reporting Station
Overcast Overcast  
Wind Chill: 47°   Ceiling: 5000
Heat Index: 47°   Visibility: 10mi
Dew Point: 35°   Wind: 0mph
Humidity: 63%   Direction: NA
Pressure: 30.27"   Gusts: NA
Location:  42.23°N, 111.4°W
Report Text: KLGU 260651Z AUTO 00000KT 10SM OVC050 08/02 A3027 RMK AO2 SLP248 T00830017 400831039
Loading
Personal Weather Stations






























Interactive Weather Map New forecast layout! Learn more

10-Day Weather Forecast

Advertisements
Track Severe Weather on mobile